Time;durP1;ratioP1;P1;durP2;ratioP2;P2;SDS_P1;SDS_P2;PMS_P1;PMS_P2;Temp;Humidity;BMP_temperature;BMP_pressure;BME280_temperature;BME280_humidity;BME280_pressure;Samples;Min_cycle;Max_cycle;Signal;HPM_P1;HPM_P2
2022/11/22 00:00:40;;;;;;;2.95;2.75;;;;;;;4.12;100.00;62428.03;5003034;28;20289;-73
2022/11/22 00:03:09;;;;;;;2.40;2.30;;;;;;;4.04;100.00;62419.78;5004371;28;20200;-73
2022/11/22 00:05:35;;;;;;;4.72;3.38;;;;;;;3.99;100.00;62409.09;5002368;28;20219;-73
2022/11/22 00:08:03;;;;;;;2.88;2.72;;;;;;;3.98;100.00;62403.03;5003463;28;20552;-74
2022/11/22 00:10:29;;;;;;;2.72;2.63;;;;;;;4.04;100.00;62416.75;5002837;28;20269;-75
2022/11/22 00:12:56;;;;;;;2.97;2.78;;;;;;;4.09;100.00;62422.41;5006052;28;20218;-73
2022/11/22 00:15:23;;;;;;;4.07;3.67;;;;;;;4.13;100.00;62424.00;5005772;28;20225;-73
2022/11/22 00:17:50;;;;;;;4.47;4.10;;;;;;;4.14;100.00;62424.53;4998825;28;20254;-76
2022/11/22 00:20:19;;;;;;;6.13;4.82;;;;;;;4.25;100.00;62433.84;5007197;28;20223;-75
2022/11/22 00:22:46;;;;;;;4.95;4.47;;;;;;;4.28;100.00;62438.94;5006421;28;20271;-75
2022/11/22 00:25:14;;;;;;;4.30;3.97;;;;;;;4.22;100.00;62433.28;5005867;28;20230;-75
2022/11/22 00:27:41;;;;;;;4.95;4.32;;;;;;;4.30;100.00;62438.97;5005687;28;20195;-75
2022/11/22 00:30:09;;;;;;;4.47;4.07;;;;;;;4.36;100.00;62447.16;5006944;28;20239;-76
2022/11/22 00:32:36;;;;;;;3.60;3.33;;;;;;;4.28;100.00;62446.50;5001830;28;20211;-76
2022/11/22 00:35:04;;;;;;;3.65;3.45;;;;;;;4.28;100.00;62441.97;5005634;28;20207;-76
2022/11/22 00:37:33;;;;;;;3.58;3.38;;;;;;;4.31;100.00;62445.06;4996619;28;20200;-75
2022/11/22 00:40:01;;;;;;;3.40;2.72;;;;;;;4.23;100.00;62439.34;4998424;28;20199;-75
2022/11/22 00:42:27;;;;;;;3.42;3.22;;;;;;;4.31;100.00;62442.53;5004920;28;20230;-73
2022/11/22 00:44:54;;;;;;;3.53;3.30;;;;;;;4.35;100.00;62449.16;5005893;28;20200;-73
2022/11/22 00:47:21;;;;;;;3.20;3.00;;;;;;;4.40;100.00;62453.81;5006356;28;20508;-74
2022/11/22 00:49:48;;;;;;;3.15;2.95;;;;;;;4.32;100.00;62443.03;4995863;28;20615;-74
2022/11/22 00:52:15;;;;;;;3.75;3.45;;;;;;;4.21;100.00;62434.25;5005736;28;20309;-74
2022/11/22 00:54:44;;;;;;;5.47;4.15;;;;;;;4.21;100.00;62434.25;5004436;28;20254;-73
2022/11/22 00:57:11;;;;;;;3.83;3.53;;;;;;;4.18;100.00;62431.16;4986606;28;20247;-73
2022/11/22 00:59:38;;;;;;;3.97;3.60;;;;;;;4.01;100.00;62413.66;5003743;28;20210;-73
2022/11/22 01:02:05;;;;;;;4.22;3.92;;;;;;;4.07;100.00;62425.38;5004517;28;20241;-73
2022/11/22 01:04:32;;;;;;;3.58;3.28;;;;;;;4.00;100.00;62412.66;4998119;28;20276;-74
2022/11/22 01:06:59;;;;;;;3.50;3.22;;;;;;;3.86;100.00;62396.25;4985851;28;20219;-73
2022/11/22 01:09:25;;;;;;;4.43;4.13;;;;;;;3.75;100.00;62387.44;4985877;28;20263;-73
2022/11/22 01:11:54;;;;;;;4.05;3.75;;;;;;;3.84;100.00;62393.66;4996491;28;20539;-72
2022/11/22 01:14:21;;;;;;;3.78;3.53;;;;;;;3.88;100.00;62395.25;5003674;28;20255;-73
2022/11/22 01:16:48;;;;;;;5.18;4.68;;;;;;;3.87;100.00;62397.25;5004838;28;20552;-73
2022/11/22 01:19:15;;;;;;;4.13;3.83;;;;;;;3.87;100.00;62399.25;5005317;28;20199;-73
2022/11/22 01:21:42;;;;;;;5.03;4.55;;;;;;;3.82;100.00;62392.13;5005322;28;20235;-74
2022/11/22 01:24:09;;;;;;;4.68;4.38;;;;;;;3.83;100.00;62395.16;5002254;28;20255;-74
2022/11/22 01:26:38;;;;;;;3.83;3.53;;;;;;;3.85;100.00;62400.25;5005484;28;20223;-73
2022/11/22 01:29:06;;;;;;;4.78;4.38;;;;;;;3.85;100.00;62397.72;5004927;28;20214;-73
2022/11/22 01:31:33;;;;;;;5.28;4.82;;;;;;;3.81;100.00;62393.09;5003094;28;20269;-74
2022/11/22 01:34:00;;;;;;;4.40;3.78;;;;;;;3.78;100.00;62390.00;5005255;28;20200;-73
2022/11/22 01:36:27;;;;;;;4.38;3.97;;;;;;;3.74;100.00;62383.91;5004325;28;20227;-73
2022/11/22 01:38:54;;;;;;;4.60;4.20;;;;;;;3.70;100.00;62386.81;5003291;28;20195;-73
2022/11/22 01:41:21;;;;;;;4.43;4.10;;;;;;;3.71;100.00;62380.31;4993786;28;20279;-74
2022/11/22 01:43:48;;;;;;;4.20;3.90;;;;;;;3.66;100.00;62377.69;4993334;28;20199;-73
2022/11/22 01:46:27;;;;;;;4.93;4.57;;;;;;;3.62;100.00;62373.56;5004783;28;20494;-73
2022/11/22 01:48:59;;;;;;;8.27;6.78;;;;;;;3.57;100.00;62366.41;5004812;28;20234;-74
2022/11/22 01:51:31;;;;;;;12.38;8.48;;;;;;;3.53;100.00;62360.31;5003552;28;20216;-74
2022/11/22 01:54:01;;;;;;;7.57;5.72;;;;;;;3.52;100.00;62363.78;5002681;28;20432;-73
2022/11/22 01:56:30;;;;;;;5.38;4.90;;;;;;;3.48;100.00;62357.16;5004907;28;20241;-72
2022/11/22 01:58:59;;;;;;;4.30;3.95;;;;;;;3.48;100.00;62357.16;4995843;28;20458;-74
2022/11/22 02:01:29;;;;;;;4.93;4.45;;;;;;;3.40;100.00;62348.91;4984859;28;20242;-72
2022/11/22 02:03:59;;;;;;;5.10;4.60;;;;;;;3.37;100.00;62345.84;4997947;28;20238;-74
2022/11/22 02:06:39;;;;;;;4.68;4.28;;;;;;;3.44;100.00;62355.56;5004646;28;20224;-73
2022/11/22 02:09:10;;;;;;;4.32;3.97;;;;;;;3.40;100.00;62349.44;5002529;28;20550;-73
2022/11/22 02:11:41;;;;;;;3.42;3.22;;;;;;;3.41;100.00;62353.00;5004302;28;20623;-72
2022/11/22 02:14:10;;;;;;;4.20;3.90;;;;;;;3.39;100.00;62350.41;5004000;28;20188;-72
2022/11/22 02:16:40;;;;;;;4.15;3.85;;;;;;;3.37;100.00;62343.31;5002101;28;20220;-73
2022/11/22 02:19:14;;;;;;;3.17;2.97;;;;;;;3.37;100.00;62348.88;5004026;28;20221;-73
2022/11/22 02:21:41;;;;;;;3.65;3.35;;;;;;;3.36;100.00;62342.81;5004121;28;20258;-72
2022/11/22 02:24:11;;;;;;;3.15;2.95;;;;;;;3.39;100.00;62348.41;5002880;28;20203;-71
2022/11/22 02:26:40;;;;;;;3.83;3.53;;;;;;;3.27;100.00;62335.56;5003414;28;20536;-72
2022/11/22 02:29:08;;;;;;;3.28;3.10;;;;;;;3.41;100.00;62353.00;5003442;28;20227;-74
2022/11/22 02:31:39;;;;;;;3.88;3.65;;;;;;;3.34;100.00;62345.78;5003829;28;20226;-72
2022/11/22 02:34:06;;;;;;;4.00;3.70;;;;;;;3.32;100.00;62340.69;4998834;28;20199;-72
2022/11/22 02:36:37;;;;;;;4.28;3.97;;;;;;;3.29;100.00;62337.63;4984298;28;20243;-73
2022/11/22 02:39:05;;;;;;;4.88;4.47;;;;;;;3.23;100.00;62331.44;4985154;28;20188;-73
2022/11/22 02:41:33;;;;;;;4.38;4.05;;;;;;;3.19;100.00;62327.84;4983599;28;20288;-72
2022/11/22 02:44:01;;;;;;;4.32;4.00;;;;;;;3.16;100.00;62327.28;4995896;28;20202;-72
2022/11/22 02:46:28;;;;;;;4.43;4.00;;;;;;;3.18;100.00;62329.34;5004149;28;20242;-72
2022/11/22 02:48:55;;;;;;;4.35;3.92;;;;;;;3.12;100.00;62323.16;5003473;28;20290;-73
2022/11/22 02:51:23;;;;;;;4.25;3.95;;;;;;;3.15;100.00;62325.75;5002547;28;20223;-72
2022/11/22 02:53:51;;;;;;;3.15;2.95;;;;;;;3.13;100.00;62326.72;5003169;28;20207;-72
2022/11/22 02:56:18;;;;;;;4.40;4.10;;;;;;;3.14;100.00;62327.75;5003354;28;20293;-73
2022/11/22 02:58:45;;;;;;;4.00;3.35;;;;;;;3.04;100.00;62314.44;5003329;28;20270;-72
2022/11/22 03:01:14;;;;;;;4.43;4.03;;;;;;;2.96;100.00;62303.69;4997142;28;20231;-72
2022/11/22 03:03:42;;;;;;;4.55;3.78;;;;;;;2.96;100.00;62303.69;4986834;28;20211;-76
2022/11/22 03:06:10;;;;;;;5.30;4.80;;;;;;;2.94;100.00;62302.16;5003232;28;20278;-75
2022/11/22 03:08:37;;;;;;;6.50;5.20;;;;;;;2.99;100.00;62304.78;5004764;28;20595;-74
2022/11/22 03:11:03;;;;;;;8.68;7.25;;;;;;;2.91;100.00;62301.59;5001930;28;20356;-72
2022/11/22 03:13:30;;;;;;;6.43;5.82;;;;;;;2.92;100.00;62305.13;5003192;28;20492;-72
2022/11/22 03:15:57;;;;;;;5.18;4.68;;;;;;;2.99;100.00;62309.81;5003492;28;20227;-74
2022/11/22 03:18:26;;;;;;;5.65;5.10;;;;;;;3.01;100.00;62306.31;5002981;28;20218;-76
2022/11/22 03:20:53;;;;;;;5.38;4.90;;;;;;;2.92;100.00;62300.09;4988455;28;20224;-74
2022/11/22 03:23:20;;;;;;;5.20;4.80;;;;;;;2.95;100.00;62302.69;5001195;28;20239;-76
2022/11/22 03:25:46;;;;;;;5.05;4.60;;;;;;;2.95;100.00;62302.69;5003614;28;20258;-72
2022/11/22 03:28:14;;;;;;;4.00;3.65;;;;;;;2.88;100.00;62298.50;4997677;28;20500;-75
2022/11/22 03:30:42;;;;;;;3.85;3.55;;;;;;;2.80;100.00;62287.25;4983927;28;20227;-76
2022/11/22 03:33:09;;;;;;;4.35;3.95;;;;;;;2.89;100.00;62299.00;4991886;28;20246;-73
2022/11/22 03:35:38;;;;;;;4.10;3.83;;;;;;;2.78;100.00;62288.22;5003200;28;20318;-75
2022/11/22 03:38:05;;;;;;;4.10;3.80;;;;;;;2.75;100.00;62284.63;5002715;28;20249;-74
2022/11/22 03:40:33;;;;;;;4.07;3.78;;;;;;;2.72;100.00;62282.06;5003845;28;20436;-73
2022/11/22 03:43:01;;;;;;;5.00;4.60;;;;;;;2.64;100.00;62273.34;5003567;28;20227;-76
2022/11/22 03:45:29;;;;;;;4.53;4.10;;;;;;;2.72;100.00;62282.06;5003236;28;20243;-75
2022/11/22 03:47:56;;;;;;;7.10;3.42;;;;;;;2.68;100.00;62277.44;4988245;28;20203;-76
2022/11/22 03:50:25;;;;;;;3.78;3.47;;;;;;;2.68;100.00;62274.91;4993272;28;20242;-74
2022/11/22 03:52:54;;;;;;;3.63;3.33;;;;;;;2.54;100.00;62263.56;5005579;28;20508;-76
2022/11/22 03:55:20;;;;;;;7.63;3.83;;;;;;;2.64;100.00;62276.34;4988584;28;20552;-72
2022/11/22 03:57:48;;;;;;;3.63;3.40;;;;;;;2.52;100.00;62261.50;5002317;28;20396;-75
2022/11/22 04:00:16;;;;;;;3.38;3.17;;;;;;;2.57;100.00;62263.63;5006260;28;20274;-74
2022/11/22 04:02:43;;;;;;;3.60;3.30;;;;;;;2.60;100.00;62266.72;5006011;28;20238;-75
2022/11/22 04:05:11;;;;;;;3.72;3.08;;;;;;;2.53;100.00;62262.53;4997438;28;20243;-75
2022/11/22 04:07:38;;;;;;;3.55;3.25;;;;;;;2.50;100.00;62256.44;4993737;28;20207;-76
2022/11/22 04:10:08;;;;;;;3.45;3.20;;;;;;;2.54;100.00;62261.06;5005465;28;20448;-74
2022/11/22 04:12:35;;;;;;;3.20;3.00;;;;;;;2.55;100.00;62264.09;4997621;28;20207;-74
2022/11/22 04:15:08;;;;;;;3.17;2.97;;;;;;;2.44;100.00;62252.78;5004829;28;20199;-73
2022/11/22 04:17:44;;;;;;;3.63;3.38;;;;;;;2.40;100.00;62248.69;5007216;28;20199;-75
2022/11/22 04:23:01;;;;;;;4.18;3.85;;;;;;;2.36;100.00;62240.56;4993989;28;20286;-74
2022/11/22 04:25:30;;;;;;;3.88;3.58;;;;;;;2.35;100.00;62244.56;5006110;28;20226;-76
2022/11/22 04:27:58;;;;;;;4.38;3.30;;;;;;;2.35;100.00;62239.03;5006047;28;20547;-72
2022/11/22 04:32:44;;;;;;;3.80;3.47;;;;;;;2.38;100.00;62245.13;5005018;28;20418;-74
2022/11/22 04:33:14;;;;;;;3.63;3.33;;;;;;;2.35;100.00;62242.06;5004137;28;20270;-73
2022/11/22 04:35:41;;;;;;;3.42;3.13;;;;;;;2.21;100.00;62225.16;5004851;28;20226;-71
2022/11/22 04:38:09;;;;;;;3.50;3.30;;;;;;;2.24;100.00;62232.75;5004500;28;20356;-71
2022/11/22 04:40:37;;;;;;;3.22;3.03;;;;;;;2.25;100.00;62231.28;5003972;28;20231;-71
2022/11/22 04:45:48;;;;;;;3.95;3.65;;;;;;;2.14;100.00;62217.47;5005875;28;20577;-72
2022/11/22 04:48:16;;;;;;;3.55;3.28;;;;;;;1.98;100.00;62201.56;5004942;28;20195;-72
2022/11/22 04:53:29;;;;;;;2.78;2.58;;;;;;;2.07;100.00;62215.31;5004883;28;20224;-71
2022/11/22 04:55:57;;;;;;;2.65;2.55;;;;;;;2.04;100.00;62210.22;4996720;28;20532;-72
2022/11/22 04:58:24;;;;;;;3.75;3.55;;;;;;;2.03;100.00;62214.22;5000370;28;20200;-75
2022/11/22 05:00:52;;;;;;;3.83;3.50;;;;;;;2.00;100.00;62208.13;5005120;28;20421;-71
2022/11/22 05:03:19;;;;;;;3.65;3.35;;;;;;;1.97;100.00;62203.03;4995265;28;20232;-75
2022/11/22 05:05:46;;;;;;;3.65;3.40;;;;;;;2.03;100.00;62206.69;4993579;28;20451;-74
2022/11/22 05:08:13;;;;;;;3.58;3.38;;;;;;;1.99;100.00;62207.59;4997941;28;20204;-75
2022/11/22 05:13:25;;;;;;;4.03;3.75;;;;;;;2.03;100.00;62211.19;4996165;28;20233;-75
2022/11/22 05:15:53;;;;;;;4.40;4.00;;;;;;;2.03;100.00;62206.69;4998115;28;20478;-75
2022/11/22 05:18:21;;;;;;;4.47;3.45;;;;;;;2.01;100.00;62209.66;4997838;28;20207;-73
2022/11/22 05:20:48;;;;;;;4.05;3.75;;;;;;;2.05;100.00;62208.72;5001234;28;20223;-73
2022/11/22 05:26:01;;;;;;;4.75;4.28;;;;;;;2.06;100.00;62212.28;4999967;28;20230;-75
2022/11/22 05:28:31;;;;;;;11.65;8.48;;;;;;;1.95;100.00;62200.97;4988449;28;20479;-75
2022/11/22 05:30:58;;;;;;;5.65;5.13;;;;;;;2.02;100.00;62210.19;5003859;28;20265;-73
2022/11/22 05:33:25;;;;;;;5.28;4.88;;;;;;;2.06;100.00;62206.75;5004200;28;20212;-72
2022/11/22 05:35:52;;;;;;;4.15;3.80;;;;;;;2.01;100.00;62211.66;4996989;28;20219;-73
2022/11/22 05:38:19;;;;;;;3.72;3.42;;;;;;;2.01;100.00;62207.16;5003139;28;20265;-72
2022/11/22 05:40:45;;;;;;;4.22;3.83;;;;;;;2.09;100.00;62217.88;5000422;28;20436;-72
2022/11/22 05:43:12;;;;;;;4.03;3.72;;;;;;;2.13;100.00;62221.97;4996933;28;20236;-72
2022/11/22 05:45:40;;;;;;;3.92;3.72;;;;;;;2.15;100.00;62221.00;4985644;28;20228;-72
2022/11/22 05:48:07;;;;;;;4.38;3.70;;;;;;;2.19;100.00;62227.63;4990064;28;20223;-73
2022/11/22 05:50:34;;;;;;;6.53;5.45;;;;;;;2.23;100.00;62226.69;5003942;28;20223;-74
2022/11/22 05:53:02;;;;;;;4.35;3.97;;;;;;;2.26;100.00;62235.31;5004496;28;20203;-72
2022/11/22 05:55:29;;;;;;;5.28;4.60;;;;;;;2.29;100.00;62230.88;5004259;28;20253;-73
2022/11/22 05:57:55;;;;;;;4.05;3.75;;;;;;;2.36;100.00;62243.06;5003143;28;20451;-73
2022/11/22 06:00:22;;;;;;;4.00;3.78;;;;;;;2.45;100.00;62246.28;5002541;28;20316;-73
2022/11/22 06:02:50;;;;;;;5.15;4.65;;;;;;;2.48;100.00;62252.38;5004496;28;20235;-73
2022/11/22 06:05:18;;;;;;;4.35;3.97;;;;;;;2.56;100.00;62265.09;5002129;28;20433;-73
2022/11/22 06:07:45;;;;;;;4.70;4.30;;;;;;;2.59;100.00;62265.69;4984757;28;20227;-73
2022/11/22 06:10:14;;;;;;;5.70;4.57;;;;;;;2.64;100.00;62271.31;4982589;28;20224;-72
2022/11/22 06:12:40;;;;;;;4.78;3.95;;;;;;;2.60;100.00;62264.19;4990744;28;20484;-72
2022/11/22 06:15:10;;;;;;;4.47;4.18;;;;;;;2.63;100.00;62270.31;5001313;28;20570;-73
2022/11/22 06:17:37;;;;;;;5.03;4.30;;;;;;;2.73;100.00;62280.06;5002627;28;20211;-73
2022/11/22 06:20:06;;;;;;;6.47;5.72;;;;;;;2.74;100.00;62286.66;5003370;28;20214;-73
2022/11/22 06:22:33;;;;;;;6.55;5.47;;;;;;;2.82;100.00;62286.78;5002436;28;20219;-74
2022/11/22 06:24:59;;;;;;;5.93;5.03;;;;;;;2.82;100.00;62284.28;4987604;28;20254;-73
2022/11/22 06:27:26;;;;;;;6.18;4.97;;;;;;;2.95;100.00;62302.69;4983708;28;20497;-72
2022/11/22 06:29:53;;;;;;;5.57;4.90;;;;;;;3.01;100.00;62313.88;4987343;28;20203;-72
2022/11/22 06:32:20;;;;;;;5.63;5.13;;;;;;;3.04;100.00;62314.94;5000528;28;20243;-72
2022/11/22 06:34:47;;;;;;;5.75;5.25;;;;;;;3.12;100.00;62325.69;5002632;28;20201;-73
2022/11/22 06:37:16;;;;;;;6.25;5.65;;;;;;;3.20;100.00;62328.88;5003663;28;20532;-72
2022/11/22 06:39:43;;;;;;;6.93;6.13;;;;;;;3.35;100.00;62344.31;5002805;28;20258;-72
2022/11/22 06:42:09;;;;;;;7.10;6.10;;;;;;;3.86;100.00;62393.19;4995505;28;20219;-71
2022/11/22 06:44:36;;;;;;;12.45;8.23;;;;;;;4.35;100.00;62451.69;4983748;28;20493;-73
2022/11/22 06:47:03;;;;;;;8.73;6.13;;;;;;;4.54;100.00;62463.16;4983827;28;20524;-72
2022/11/22 06:49:30;;;;;;;5.95;5.40;;;;;;;4.37;100.00;62450.72;5001886;28;20273;-74
2022/11/22 06:51:57;;;;;;;5.10;4.60;;;;;;;4.26;100.00;62439.91;4994254;28;20282;-72
2022/11/22 06:54:25;;;;;;;7.28;5.10;;;;;;;4.24;100.00;62432.81;4984792;28;20210;-72
2022/11/22 06:56:52;;;;;;;5.75;5.13;;;;;;;4.01;100.00;62411.16;4994368;28;20220;-73
2022/11/22 06:59:19;;;;;;;7.30;6.60;;;;;;;4.07;100.00;62420.34;5001215;28;20262;-72
2022/11/22 07:01:45;;;;;;;7.45;6.75;;;;;;;4.28;100.00;62436.41;4998019;28;20245;-73
2022/11/22 07:04:12;;;;;;;10.13;7.45;;;;;;;4.20;100.00;62428.16;5003639;28;20254;-73
2022/11/22 07:06:39;;;;;;;8.93;7.30;;;;;;;4.82;100.00;62494.50;5003744;28;20227;-72
2022/11/22 07:09:08;;;;;;;12.38;9.70;;;;;;;4.52;100.00;62466.66;5002671;28;20200;-72
2022/11/22 07:11:37;;;;;;;11.50;8.70;;;;;;;4.43;100.00;62454.88;5003015;28;20229;-72
2022/11/22 07:14:05;;;;;;;15.38;8.68;;;;;;;4.43;100.00;62452.38;5003079;28;20195;-72
2022/11/22 07:16:32;;;;;;;10.18;7.50;;;;;;;4.50;100.00;62462.06;4983879;28;20235;-72
2022/11/22 07:19:00;;;;;;;15.48;8.30;;;;;;;4.08;100.00;62418.88;4997509;28;20203;-72
2022/11/22 07:21:27;;;;;;;9.00;7.97;;;;;;;4.19;100.00;62427.66;5007234;28;20272;-72
2022/11/22 07:23:55;;;;;;;13.02;9.23;;;;;;;4.27;100.00;62443.47;5008013;28;20295;-72
2022/11/22 07:26:24;;;;;;;11.68;9.52;;;;;;;4.36;100.00;62450.22;5006106;28;20219;-73
2022/11/22 07:28:52;;;;;;;13.02;9.55;;;;;;;4.41;100.00;62454.81;4989510;28;20200;-73
2022/11/22 07:31:19;;;;;;;12.23;8.90;;;;;;;4.47;100.00;62463.50;4993649;28;20226;-73
2022/11/22 07:33:46;;;;;;;9.65;8.27;;;;;;;4.50;100.00;62464.59;4987851;28;20199;-74
2022/11/22 07:36:15;;;;;;;11.85;7.95;;;;;;;4.51;100.00;62468.16;4995455;28;20302;-73
2022/11/22 07:38:42;;;;;;;10.05;7.95;;;;;;;4.47;100.00;62461.50;5007592;28;20199;-73
2022/11/22 07:41:10;;;;;;;10.90;7.88;;;;;;;4.53;100.00;62462.13;5007393;28;20290;-75
2022/11/22 07:43:37;;;;;;;10.38;8.02;;;;;;;4.60;100.00;62472.38;5006628;28;20230;-73
2022/11/22 07:46:07;;;;;;;8.05;7.25;;;;;;;4.51;100.00;62465.13;5005321;28;20266;-72
2022/11/22 07:48:34;;;;;;;7.18;6.47;;;;;;;4.78;100.00;62489.88;5007103;28;20218;-72
2022/11/22 07:51:05;;;;;;;7.72;6.75;;;;;;;4.86;100.00;62498.63;5007201;28;20321;-72
2022/11/22 07:53:32;;;;;;;5.35;4.90;;;;;;;4.82;100.00;62494.50;5005188;28;20187;-73
2022/11/22 07:56:02;;;;;;;6.30;5.80;;;;;;;4.92;100.00;62501.78;5005029;28;20242;-73
2022/11/22 07:58:29;;;;;;;6.65;6.05;;;;;;;5.01;100.00;62519.13;5006828;28;20461;-72
2022/11/22 08:01:04;;;;;;;6.45;5.43;;;;;;;5.10;100.00;62525.34;5007142;28;20434;-72
2022/11/22 08:03:33;;;;;;;11.60;5.95;;;;;;;5.12;100.00;62527.94;5005187;28;20261;-73
2022/11/22 08:06:01;;;;;;;7.50;6.22;;;;;;;5.11;100.00;62529.41;5005517;28;20219;-73
2022/11/22 08:08:28;;;;;;;6.00;5.30;;;;;;;5.20;100.00;62533.63;5006733;28;20396;-73
2022/11/22 08:10:56;;;;;;;6.20;5.35;;;;;;;5.02;100.00;62512.06;5006625;28;20650;-71
2022/11/22 08:13:23;;;;;;;6.00;5.13;;;;;;;4.95;100.00;62505.38;4991057;28;20208;-72
2022/11/22 08:15:50;;;;;;;7.60;5.35;;;;;;;5.06;100.00;62518.69;5001663;28;20219;-73
2022/11/22 08:18:17;;;;;;;5.18;4.78;;;;;;;5.04;100.00;62516.66;5007045;28;20218;-73
2022/11/22 08:20:45;;;;;;;5.72;5.00;;;;;;;4.90;100.00;62502.75;5004803;28;20219;-72
2022/11/22 08:23:12;;;;;;;3.97;3.67;;;;;;;4.85;100.00;62502.63;5006373;28;20238;-74
2022/11/22 08:25:39;;;;;;;5.47;4.97;;;;;;;4.89;100.00;62501.72;5006175;28;20219;-72
2022/11/22 08:28:06;;;;;;;6.15;5.18;;;;;;;5.08;100.00;62523.28;5006600;28;20203;-73
2022/11/22 08:30:33;;;;;;;11.30;6.57;;;;;;;5.31;100.00;62542.44;5004464;28;20542;-73
2022/11/22 08:33:00;;;;;;;11.88;8.95;;;;;;;5.48;100.00;62565.00;5005302;28;20221;-73
2022/11/22 08:35:27;;;;;;;9.73;8.15;;;;;;;5.79;100.00;62598.97;4995812;28;20258;-74
2022/11/22 08:37:57;;;;;;;12.75;7.18;;;;;;;5.70;100.00;62592.72;5002207;28;20302;-74
2022/11/22 08:40:24;;;;;;;11.82;7.40;;;;;;;5.79;100.00;62599.47;5006244;28;20294;-73
2022/11/22 08:42:54;;;;;;;9.40;6.57;;;;;;;5.72;100.00;62586.69;5005855;28;20203;-73
2022/11/22 08:45:21;;;;;;;9.93;7.60;;;;;;;5.82;100.00;62597.53;4995613;28;20220;-73
2022/11/22 08:47:48;;;;;;;8.65;7.75;;;;;;;6.13;100.00;62628.44;4986492;28;20238;-72
2022/11/22 08:50:17;;;;;;;12.15;8.38;;;;;;;6.15;100.00;62630.50;4986278;28;20224;-72
2022/11/22 08:52:44;;;;;;;10.90;9.10;;;;;;;6.22;100.00;62638.25;4986409;28;20255;-71
2022/11/22 08:55:15;;;;;;;9.90;8.23;;;;;;;6.47;100.00;62668.56;5001249;28;20461;-75
2022/11/22 08:57:42;;;;;;;8.95;8.00;;;;;;;6.64;100.00;62684.06;4995190;28;20200;-72
2022/11/22 09:00:10;;;;;;;10.13;8.13;;;;;;;6.42;100.00;62655.81;4986685;28;20280;-72
2022/11/22 09:02:37;;;;;;;12.02;10.18;;;;;;;6.47;100.00;62664.00;4986109;28;20200;-71
2022/11/22 09:05:05;;;;;;;15.02;10.05;;;;;;;6.27;100.00;62642.88;4986167;28;20243;-72
2022/11/22 09:07:32;;;;;;;11.52;9.00;;;;;;;6.15;100.00;62630.50;4986579;28;20203;-73
2022/11/22 09:09:59;;;;;;;12.57;8.90;;;;;;;6.26;100.00;62644.38;4986186;28;20196;-72
2022/11/22 09:12:27;;;;;;;13.52;9.90;;;;;;;6.46;100.00;62659.94;4991049;28;20216;-73
2022/11/22 09:14:54;;;;;;;11.15;9.93;;;;;;;6.71;100.00;62688.75;4992555;28;20200;-72
2022/11/22 09:17:21;;;;;;;10.75;8.85;;;;;;;6.96;100.00;62711.50;5003990;28;20555;-73
2022/11/22 09:19:50;;;;;;;12.15;9.32;;;;;;;7.09;100.00;62726.94;5005332;28;20267;-73
2022/11/22 09:22:17;;;;;;;11.00;9.65;;;;;;;7.13;100.00;62734.09;5004810;28;20195;-73
2022/11/22 09:24:43;;;;;;;11.15;9.55;;;;;;;6.92;100.00;62707.38;5004763;28;20258;-72
2022/11/22 09:27:10;;;;;;;11.60;9.70;;;;;;;7.15;100.00;62731.09;4991114;28;20208;-72
2022/11/22 09:29:38;;;;;;;11.25;9.27;;;;;;;7.00;100.00;62713.09;5004476;28;20199;-74
2022/11/22 09:32:09;;;;;;;11.50;9.85;;;;;;;7.09;100.00;62726.94;5005162;28;20291;-72
2022/11/22 09:34:36;;;;;;;13.65;9.07;;;;;;;6.82;100.00;62699.59;5003356;28;20246;-72
2022/11/22 09:37:03;;;;;;;12.57;9.25;;;;;;;6.70;100.00;62687.75;5005382;28;20295;-73
2022/11/22 09:39:29;;;;;;;9.85;8.85;;;;;;;6.53;100.00;62672.22;5004777;28;20397;-72
2022/11/22 09:42:28;;;;;;;10.27;7.75;;;;;;;6.57;100.00;62671.81;5005413;28;20227;-72
2022/11/22 09:45:16;;;;;;;8.60;7.80;;;;;;;6.70;100.00;62687.75;5005276;28;20235;-72
2022/11/22 09:47:56;;;;;;;9.95;7.47;;;;;;;6.71;100.00;62688.25;5005031;28;20199;-72
2022/11/22 09:50:30;;;;;;;11.52;8.80;;;;;;;6.89;100.00;62709.88;5004936;28;20394;-72
2022/11/22 09:53:03;;;;;;;11.00;8.10;;;;;;;6.95;100.00;62718.06;4997763;28;20252;-73
2022/11/22 09:55:36;;;;;;;8.30;7.50;;;;;;;7.10;100.00;62731.00;4986425;28;20220;-73
2022/11/22 09:58:10;;;;;;;13.13;7.35;;;;;;;7.16;100.00;62731.63;4985519;28;20489;-72
2022/11/22 10:00:42;;;;;;;9.50;6.20;;;;;;;7.17;100.00;62738.25;5002178;28;20516;-72
2022/11/22 10:03:18;;;;;;;9.10;7.47;;;;;;;7.28;100.00;62744.53;4990254;28;20242;-73
2022/11/22 10:05:50;;;;;;;7.85;6.80;;;;;;;7.33;100.00;62754.22;5001247;28;20531;-73
2022/11/22 10:08:29;;;;;;;7.78;7.00;;;;;;;6.91;100.00;62711.41;5002464;28;20460;-72
2022/11/22 10:10:58;;;;;;;7.93;6.65;;;;;;;7.25;100.00;62743.44;4987899;28;20231;-72
2022/11/22 10:13:33;;;;;;;11.90;8.40;;;;;;;7.75;100.00;62800.09;4991363;28;20212;-74
2022/11/22 10:16:10;;;;;;;9.15;7.95;;;;;;;7.93;100.00;62813.63;4990766;28;20312;-72
2022/11/22 10:18:41;;;;;;;9.95;8.60;;;;;;;7.78;100.00;62798.66;4986863;28;20340;-74
2022/11/22 10:21:11;;;;;;;9.73;7.97;;;;;;;7.74;100.00;62797.06;4984685;28;20588;-72
2022/11/22 10:23:39;;;;;;;10.05;8.20;;;;;;;7.79;100.00;62801.72;4985725;28;20402;-73
2022/11/22 10:26:20;;;;;;;11.43;8.70;;;;;;;7.77;100.00;62800.16;5000360;28;20230;-72
2022/11/22 10:28:56;;;;;;;11.48;8.50;;;;;;;7.74;100.00;62794.53;5004475;28;20187;-72
2022/11/22 10:31:32;;;;;;;9.10;7.97;;;;;;;8.03;100.00;62826.50;4994964;28;20270;-72
2022/11/22 10:34:05;;;;;;;10.55;9.15;;;;;;;8.03;100.00;62824.47;4993604;28;20266;-73
2022/11/22 10:36:38;;;;;;;9.98;8.65;;;;;;;8.20;100.00;62849.63;5003885;28;20218;-72
2022/11/22 10:39:20;;;;;;;12.30;9.27;;;;;;;8.54;100.00;62873.59;5004121;28;20199;-72
2022/11/22 10:42:03;;;;;;;10.23;8.70;;;;;;;8.74;100.00;62894.25;5001166;28;20223;-73
2022/11/22 10:44:41;;;;;;;11.23;8.85;;;;;;;8.53;100.00;62872.56;5004057;28;20238;-73
2022/11/22 10:47:18;;;;;;;11.02;8.40;;;;;;;8.70;100.00;62895.19;5002485;28;20482;-72
2022/11/22 10:49:55;;;;;;;11.05;7.55;;;;;;;8.22;100.00;62841.03;5004453;28;20224;-72
2022/11/22 10:52:33;;;;;;;9.60;8.30;;;;;;;8.40;100.00;62862.19;5004402;28;20283;-72
2022/11/22 10:55:09;;;;;;;9.95;7.82;;;;;;;8.49;100.00;62874.00;5003390;28;20351;-73
2022/11/22 10:57:47;;;;;;;9.57;8.35;;;;;;;8.33;100.00;62854.97;5002246;28;20198;-72
2022/11/22 11:00:19;;;;;;;10.68;8.70;;;;;;;8.41;100.00;62865.75;4992716;28;20492;-72
2022/11/22 11:03:06;;;;;;;8.77;7.85;;;;;;;8.20;100.00;62841.50;4984366;28;20231;-73
2022/11/22 11:05:40;;;;;;;9.90;7.93;;;;;;;7.97;100.00;62820.81;4995059;28;20351;-73
2022/11/22 11:08:11;;;;;;;9.55;7.80;;;;;;;7.95;100.00;62818.75;4984203;28;20271;-73
2022/11/22 11:10:41;;;;;;;9.75;8.20;;;;;;;8.10;100.00;62834.25;4984706;28;20232;-73
2022/11/22 11:13:27;;;;;;;8.32;7.50;;;;;;;8.05;100.00;62826.03;4984480;28;20433;-72
2022/11/22 11:15:56;;;;;;;8.45;7.53;;;;;;;8.06;100.00;62827.56;4995271;28;20254;-73
2022/11/22 11:18:31;;;;;;;8.63;7.70;;;;;;;8.29;100.00;62852.84;5004099;28;20199;-73
2022/11/22 11:20:58;;;;;;;9.90;7.00;;;;;;;7.79;100.00;62801.72;5003935;28;20264;-73
2022/11/22 11:23:25;;;;;;;7.15;6.15;;;;;;;7.81;100.00;62801.75;5002679;28;20203;-73
2022/11/22 11:25:51;;;;;;;8.35;7.05;;;;;;;7.75;100.00;62793.03;5003093;28;20219;-71
2022/11/22 11:28:21;;;;;;;7.40;6.55;;;;;;;7.88;100.00;62811.53;5003952;28;20199;-74
2022/11/22 11:30:52;;;;;;;9.98;7.13;;;;;;;7.67;100.00;62786.78;5003248;28;20223;-74
2022/11/22 11:33:31;;;;;;;11.02;7.38;;;;;;;7.79;100.00;62801.72;5001304;28;20230;-73
2022/11/22 11:36:04;;;;;;;9.48;7.90;;;;;;;7.79;100.00;62796.63;5003652;28;20242;-72
2022/11/22 11:38:36;;;;;;;8.93;7.18;;;;;;;7.90;100.00;62811.03;5001966;28;20200;-73
2022/11/22 11:41:17;;;;;;;13.25;8.40;;;;;;;7.92;100.00;62818.19;4991886;28;20592;-74
2022/11/22 11:43:45;;;;;;;8.65;7.63;;;;;;;8.07;100.00;62828.63;4990941;28;20207;-73
2022/11/22 11:46:17;;;;;;;11.77;7.80;;;;;;;7.97;100.00;62815.72;4989238;28;20318;-73
2022/11/22 11:48:49;;;;;;;8.93;8.07;;;;;;;8.10;100.00;62831.19;4987418;28;20243;-72
2022/11/22 11:51:31;;;;;;;10.48;7.35;;;;;;;8.02;100.00;62825.47;4999856;28;20559;-72
2022/11/22 11:54:02;;;;;;;8.27;7.45;;;;;;;7.95;100.00;62818.22;4989303;28;20196;-74